sensor_id;sensor_type;location;lat;lon;timestamp;pressure;altitude;pressure_sealevel;temperature;humidity
14295;BME280;7231;59.370;18.016;2023-10-19T00:02:48;101478.94;;;2.09;88.95
14295;BME280;7231;59.370;18.016;2023-10-19T00:05:19;101538.63;;;2.47;89.97
14295;BME280;7231;59.370;18.016;2023-10-19T00:07:46;101534.78;;;2.54;90.05
14295;BME280;7231;59.370;18.016;2023-10-19T00:10:15;101535.09;;;2.58;89.51
14295;BME280;7231;59.370;18.016;2023-10-19T00:12:43;101529.03;;;2.58;88.87
14295;BME280;7231;59.370;18.016;2023-10-19T00:15:11;101530.59;;;2.56;89.00
14295;BME280;7231;59.370;18.016;2023-10-19T00:17:41;101529.47;;;2.52;89.11
14295;BME280;7231;59.370;18.016;2023-10-19T00:20:11;101532.75;;;2.50;89.49
14295;BME280;7231;59.370;18.016;2023-10-19T00:22:54;101526.56;;;2.48;89.81
14295;BME280;7231;59.370;18.016;2023-10-19T00:25:23;101520.59;;;2.49;89.38
14295;BME280;7231;59.370;18.016;2023-10-19T00:27:52;101506.75;;;2.48;90.10
14295;BME280;7231;59.370;18.016;2023-10-19T00:30:20;101516.97;;;2.58;90.32
14295;BME280;7231;59.370;18.016;2023-10-19T00:32:50;101521.53;;;2.63;90.21
14295;BME280;7231;59.370;18.016;2023-10-19T00:35:20;101509.38;;;2.61;89.79
14295;BME280;7231;59.370;18.016;2023-10-19T00:38:02;101523.66;;;2.68;89.89
14295;BME280;7231;59.370;18.016;2023-10-19T00:40:50;101518.59;;;2.70;90.29
14295;BME280;7231;59.370;18.016;2023-10-19T00:43:27;101517.00;;;2.72;90.13
14295;BME280;7231;59.370;18.016;2023-10-19T00:46:00;101521.50;;;2.74;89.75
14295;BME280;7231;59.370;18.016;2023-10-19T00:48:32;101520.41;;;2.71;89.63
14295;BME280;7231;59.370;18.016;2023-10-19T00:51:01;101528.25;;;2.72;89.59
14295;BME280;7231;59.370;18.016;2023-10-19T00:53:38;101525.47;;;2.69;89.66
14295;BME280;7231;59.370;18.016;2023-10-19T00:56:08;101513.78;;;2.63;90.17
14295;BME280;7231;59.370;18.016;2023-10-19T00:58:38;101524.47;;;2.67;90.17
14295;BME280;7231;59.370;18.016;2023-10-19T01:01:08;101529.53;;;2.66;90.28
14295;BME280;7231;59.370;18.016;2023-10-19T01:03:37;101413.63;;;2.00;89.90
14295;BME280;7231;59.370;18.016;2023-10-19T01:06:05;101537.28;;;2.66;90.57
14295;BME280;7231;59.370;18.016;2023-10-19T01:08:41;101529.75;;;2.69;90.82
14295;BME280;7231;59.370;18.016;2023-10-19T01:11:10;101526.94;;;2.66;90.53
14295;BME280;7231;59.370;18.016;2023-10-19T01:13:39;101519.75;;;2.61;90.19
14295;BME280;7231;59.370;18.016;2023-10-19T01:16:14;101512.25;;;2.53;90.02
14295;BME280;7231;59.370;18.016;2023-10-19T01:18:49;101518.34;;;2.53;90.29
14295;BME280;7231;59.370;18.016;2023-10-19T01:21:22;101521.81;;;2.54;90.08
14295;BME280;7231;59.370;18.016;2023-10-19T01:23:55;101514.28;;;2.57;90.31
14295;BME280;7231;59.370;18.016;2023-10-19T01:26:25;101504.38;;;2.51;90.39
14295;BME280;7231;59.370;18.016;2023-10-19T01:28:53;101518.84;;;2.61;90.95
14295;BME280;7231;59.370;18.016;2023-10-19T01:31:27;101465.16;;;2.34;90.49
14295;BME280;7231;59.370;18.016;2023-10-19T01:34:04;101515.91;;;2.68;90.59
14295;BME280;7231;59.370;18.016;2023-10-19T01:36:33;101517.69;;;2.69;90.63
14295;BME280;7231;59.370;18.016;2023-10-19T01:39:10;101516.13;;;2.71;90.68
14295;BME280;7231;59.370;18.016;2023-10-19T01:41:38;101512.72;;;2.72;90.57
14295;BME280;7231;59.370;18.016;2023-10-19T01:44:08;101510.25;;;2.74;90.69
14295;BME280;7231;59.370;18.016;2023-10-19T01:46:41;101509.56;;;2.76;91.05
14295;BME280;7231;59.370;18.016;2023-10-19T01:49:10;101457.78;;;2.51;91.01
14295;BME280;7231;59.370;18.016;2023-10-19T01:51:39;101497.50;;;2.77;91.18
14295;BME280;7231;59.370;18.016;2023-10-19T01:54:07;101477.41;;;2.61;90.92
14295;BME280;7231;59.370;18.016;2023-10-19T01:56:37;101514.75;;;2.76;90.94
14295;BME280;7231;59.370;18.016;2023-10-19T01:59:06;101515.44;;;2.74;90.72
14295;BME280;7231;59.370;18.016;2023-10-19T02:01:35;101521.28;;;2.71;90.62
14295;BME280;7231;59.370;18.016;2023-10-19T02:04:05;101528.25;;;2.72;91.07
14295;BME280;7231;59.370;18.016;2023-10-19T02:06:36;101487.97;;;2.51;90.76
14295;BME280;7231;59.370;18.016;2023-10-19T02:09:04;101521.72;;;2.77;90.75
14295;BME280;7231;59.370;18.016;2023-10-19T02:11:45;101499.03;;;2.61;90.91
14295;BME280;7231;59.370;18.016;2023-10-19T02:14:14;101527.78;;;2.78;90.30
14295;BME280;7231;59.370;18.016;2023-10-19T02:16:43;101526.09;;;2.78;90.33
14295;BME280;7231;59.370;18.016;2023-10-19T02:19:11;101506.91;;;2.63;90.20
14295;BME280;7231;59.370;18.016;2023-10-19T02:21:39;101533.66;;;2.75;90.17
14295;BME280;7231;59.370;18.016;2023-10-19T02:24:07;101528.06;;;2.69;89.60
14295;BME280;7231;59.370;18.016;2023-10-19T02:26:35;101528.31;;;2.60;89.49
14295;BME280;7231;59.370;18.016;2023-10-19T02:29:05;101519.81;;;2.50;89.76
14295;BME280;7231;59.370;18.016;2023-10-19T02:31:36;101514.78;;;2.40;89.19
14295;BME280;7231;59.370;18.016;2023-10-19T02:34:04;101511.53;;;2.31;89.28
14295;BME280;7231;59.370;18.016;2023-10-19T02:36:33;101515.16;;;2.21;89.30
14295;BME280;7231;59.370;18.016;2023-10-19T02:39:01;101505.94;;;2.13;89.87
14295;BME280;7231;59.370;18.016;2023-10-19T02:41:35;101482.00;;;1.92;89.68
14295;BME280;7231;59.370;18.016;2023-10-19T02:44:02;101501.22;;;1.95;90.03
14295;BME280;7231;59.370;18.016;2023-10-19T02:46:37;101359.19;;;1.04;90.12
14295;BME280;7231;59.370;18.016;2023-10-19T02:49:07;101511.56;;;1.84;90.56
14295;BME280;7231;59.370;18.016;2023-10-19T02:51:38;101508.88;;;1.82;90.70
14295;BME280;7231;59.370;18.016;2023-10-19T02:54:06;101503.47;;;1.79;90.87
14295;BME280;7231;59.370;18.016;2023-10-19T02:56:35;101458.28;;;1.51;90.47
14295;BME280;7231;59.370;18.016;2023-10-19T02:59:02;101488.19;;;1.59;90.72
14295;BME280;7231;59.370;18.016;2023-10-19T03:01:31;101499.09;;;1.67;91.18
14295;BME280;7231;59.370;18.016;2023-10-19T03:04:02;101497.28;;;1.54;91.37
14295;BME280;7231;59.370;18.016;2023-10-19T03:06:31;101511.22;;;1.56;90.94
14295;BME280;7231;59.370;18.016;2023-10-19T03:09:00;101484.69;;;1.35;91.41
14295;BME280;7231;59.370;18.016;2023-10-19T03:11:40;101502.09;;;1.38;91.04
14295;BME280;7231;59.370;18.016;2023-10-19T03:14:07;101512.66;;;1.41;91.69
14295;BME280;7231;59.370;18.016;2023-10-19T03:16:36;101487.25;;;1.23;91.57
14295;BME280;7231;59.370;18.016;2023-10-19T03:19:05;101502.75;;;1.35;91.77
14295;BME280;7231;59.370;18.016;2023-10-19T03:21:34;101505.13;;;1.32;92.05
14295;BME280;7231;59.370;18.016;2023-10-19T03:24:09;101493.78;;;1.30;92.35
14295;BME280;7231;59.370;18.016;2023-10-19T03:26:39;101493.31;;;1.24;92.24
14295;BME280;7231;59.370;18.016;2023-10-19T03:29:11;101503.75;;;1.25;91.72
14295;BME280;7231;59.370;18.016;2023-10-19T03:31:41;101493.06;;;1.21;92.43
14295;BME280;7231;59.370;18.016;2023-10-19T03:34:13;101496.44;;;1.20;92.27
14295;BME280;7231;59.370;18.016;2023-10-19T03:36:43;101495.44;;;1.18;92.29
14295;BME280;7231;59.370;18.016;2023-10-19T03:39:11;101497.00;;;1.16;92.39
14295;BME280;7231;59.370;18.016;2023-10-19T03:41:41;101452.00;;;0.90;92.61
14295;BME280;7231;59.370;18.016;2023-10-19T03:44:11;101470.13;;;1.02;92.84
14295;BME280;7231;59.370;18.016;2023-10-19T03:46:46;101479.13;;;1.07;92.66
14295;BME280;7231;59.370;18.016;2023-10-19T03:49:26;101491.38;;;1.10;93.34
14295;BME280;7231;59.370;18.016;2023-10-19T03:52:01;101492.16;;;1.09;93.25
14295;BME280;7231;59.370;18.016;2023-10-19T03:54:47;101468.09;;;0.98;93.41
14295;BME280;7231;59.370;18.016;2023-10-19T03:57:17;101496.44;;;1.20;93.64
14295;BME280;7231;59.370;18.016;2023-10-19T03:59:50;101473.97;;;1.19;93.54
14295;BME280;7231;59.370;18.016;2023-10-19T04:02:20;101484.34;;;1.30;94.20
14295;BME280;7231;59.370;18.016;2023-10-19T04:04:51;101477.47;;;1.31;94.17
14295;BME280;7231;59.370;18.016;2023-10-19T04:07:22;101484.13;;;1.39;94.75
14295;BME280;7231;59.370;18.016;2023-10-19T04:09:53;101483.44;;;1.42;94.27
14295;BME280;7231;59.370;18.016;2023-10-19T04:12:26;101480.53;;;1.37;94.52
14295;BME280;7231;59.370;18.016;2023-10-19T04:14:56;101495.59;;;1.43;93.68
14295;BME280;7231;59.370;18.016;2023-10-19T04:17:23;101496.03;;;1.37;94.07
14295;BME280;7231;59.370;18.016;2023-10-19T04:19:53;101489.50;;;1.30;94.23
14295;BME280;7231;59.370;18.016;2023-10-19T04:22:22;101491.63;;;1.24;94.12
14295;BME280;7231;59.370;18.016;2023-10-19T04:24:50;101488.56;;;1.18;93.98
14295;BME280;7231;59.370;18.016;2023-10-19T04:27:19;101476.53;;;1.07;93.72
14295;BME280;7231;59.370;18.016;2023-10-19T04:29:49;101482.59;;;1.08;94.06
14295;BME280;7231;59.370;18.016;2023-10-19T04:32:18;101482.13;;;1.02;94.07
14295;BME280;7231;59.370;18.016;2023-10-19T04:34:53;101470.88;;;0.89;94.08
14295;BME280;7231;59.370;18.016;2023-10-19T04:37:21;101480.66;;;0.93;94.12
14295;BME280;7231;59.370;18.016;2023-10-19T04:39:51;101477.25;;;0.83;94.20
14295;BME280;7231;59.370;18.016;2023-10-19T04:42:19;101484.88;;;0.81;94.45
14295;BME280;7231;59.370;18.016;2023-10-19T04:44:49;101476.78;;;0.77;94.39
14295;BME280;7231;59.370;18.016;2023-10-19T04:47:17;101473.19;;;0.75;94.13
14295;BME280;7231;59.370;18.016;2023-10-19T04:49:45;101487.53;;;0.71;94.12
14295;BME280;7231;59.370;18.016;2023-10-19T04:52:15;101482.56;;;0.62;94.55
14295;BME280;7231;59.370;18.016;2023-10-19T04:54:44;101493.13;;;0.65;94.69
14295;BME280;7231;59.370;18.016;2023-10-19T04:57:12;101485.13;;;0.62;94.86
14295;BME280;7231;59.370;18.016;2023-10-19T04:59:39;101466.13;;;0.50;94.60
14295;BME280;7231;59.370;18.016;2023-10-19T05:02:12;101498.56;;;0.58;94.47
14295;BME280;7231;59.370;18.016;2023-10-19T05:04:40;101486.34;;;0.56;94.47
14295;BME280;7231;59.370;18.016;2023-10-19T05:07:08;101486.09;;;0.53;94.54
14295;BME280;7231;59.370;18.016;2023-10-19T05:09:40;101492.81;;;0.51;94.77
14295;BME280;7231;59.370;18.016;2023-10-19T05:12:08;101481.78;;;0.42;94.97
14295;BME280;7231;59.370;18.016;2023-10-19T05:14:38;101492.34;;;0.45;95.37
14295;BME280;7231;59.370;18.016;2023-10-19T05:17:08;101494.78;;;0.43;94.80
14295;BME280;7231;59.370;18.016;2023-10-19T05:19:38;101489.50;;;0.42;95.39
14295;BME280;7231;59.370;18.016;2023-10-19T05:22:07;101450.69;;;0.18;95.76
14295;BME280;7231;59.370;18.016;2023-10-19T05:24:36;101492.56;;;0.48;96.06
14295;BME280;7231;59.370;18.016;2023-10-19T05:27:05;101494.97;;;0.56;96.54
14295;BME280;7231;59.370;18.016;2023-10-19T05:29:38;101489.28;;;0.60;97.03
14295;BME280;7231;59.370;18.016;2023-10-19T05:32:06;101507.75;;;0.77;97.41
14295;BME280;7231;59.370;18.016;2023-10-19T05:34:36;101508.59;;;0.87;97.18
14295;BME280;7231;59.370;18.016;2023-10-19T05:37:04;101502.44;;;0.97;96.81
14295;BME280;7231;59.370;18.016;2023-10-19T05:39:32;101504.03;;;1.07;97.58
14295;BME280;7231;59.370;18.016;2023-10-19T05:42:00;101495.88;;;1.12;97.51
14295;BME280;7231;59.370;18.016;2023-10-19T05:44:30;101443.13;;;0.87;97.38
14295;BME280;7231;59.370;18.016;2023-10-19T05:46:58;101494.44;;;1.27;97.53
14295;BME280;7231;59.370;18.016;2023-10-19T05:49:27;101489.38;;;1.29;97.30
14295;BME280;7231;59.370;18.016;2023-10-19T05:51:58;101499.50;;;1.38;97.22
14295;BME280;7231;59.370;18.016;2023-10-19T05:54:26;101440.63;;;1.10;97.07
14295;BME280;7231;59.370;18.016;2023-10-19T05:56:55;101489.06;;;1.48;97.08
14295;BME280;7231;59.370;18.016;2023-10-19T05:59:23;101485.94;;;1.52;96.57
14295;BME280;7231;59.370;18.016;2023-10-19T06:01:54;101492.22;;;1.55;97.40
14295;BME280;7231;59.370;18.016;2023-10-19T06:04:22;101486.84;;;1.52;96.80
14295;BME280;7231;59.370;18.016;2023-10-19T06:06:50;101494.38;;;1.61;96.48
14295;BME280;7231;59.370;18.016;2023-10-19T06:09:18;101491.13;;;1.63;96.66
14295;BME280;7231;59.370;18.016;2023-10-19T06:11:47;101372.09;;;1.04;96.65
14295;BME280;7231;59.370;18.016;2023-10-19T06:14:16;101471.78;;;1.58;96.93
14295;BME280;7231;59.370;18.016;2023-10-19T06:16:44;101496.28;;;1.75;96.73
14295;BME280;7231;59.370;18.016;2023-10-19T06:19:14;101484.25;;;1.76;96.73
14295;BME280;7231;59.370;18.016;2023-10-19T06:21:43;101483.47;;;1.77;96.37
14295;BME280;7231;59.370;18.016;2023-10-19T06:24:10;101486.06;;;1.77;95.78
14295;BME280;7231;59.370;18.016;2023-10-19T06:26:42;101480.88;;;1.77;96.46
14295;BME280;7231;59.370;18.016;2023-10-19T06:29:10;101482.34;;;1.85;96.45
14295;BME280;7231;59.370;18.016;2023-10-19T06:31:38;101484.38;;;1.89;95.88
14295;BME280;7231;59.370;18.016;2023-10-19T06:34:06;101484.47;;;1.90;95.90
14295;BME280;7231;59.370;18.016;2023-10-19T06:36:35;101491.44;;;1.91;95.81
14295;BME280;7231;59.370;18.016;2023-10-19T06:39:04;101491.56;;;1.93;95.43
14295;BME280;7231;59.370;18.016;2023-10-19T06:41:32;101490.88;;;1.95;95.31
14295;BME280;7231;59.370;18.016;2023-10-19T06:44:01;101485.03;;;1.98;95.33
14295;BME280;7231;59.370;18.016;2023-10-19T06:46:29;101493.34;;;2.06;95.98
14295;BME280;7231;59.370;18.016;2023-10-19T06:48:57;101496.59;;;2.15;96.00
14295;BME280;7231;59.370;18.016;2023-10-19T06:51:27;101490.28;;;2.23;96.11
14295;BME280;7231;59.370;18.016;2023-10-19T06:53:57;101466.31;;;2.25;95.58
14295;BME280;7231;59.370;18.016;2023-10-19T06:56:25;101489.91;;;2.42;95.59
14295;BME280;7231;59.370;18.016;2023-10-19T06:58:53;101485.94;;;2.47;95.42
14295;BME280;7231;59.370;18.016;2023-10-19T07:01:21;101493.13;;;2.51;95.42
14295;BME280;7231;59.370;18.016;2023-10-19T07:03:53;101487.50;;;2.56;95.24
14295;BME280;7231;59.370;18.016;2023-10-19T07:06:21;101481.81;;;2.62;95.26
14295;BME280;7231;59.370;18.016;2023-10-19T07:08:49;101476.16;;;2.68;95.08
14295;BME280;7231;59.370;18.016;2023-10-19T07:11:18;101468.94;;;2.75;94.92
14295;BME280;7231;59.370;18.016;2023-10-19T07:13:46;101473.72;;;2.82;94.94
14295;BME280;7231;59.370;18.016;2023-10-19T07:16:14;101467.97;;;2.86;94.45
14295;BME280;7231;59.370;18.016;2023-10-19T07:18:43;101459.19;;;2.84;94.25
14295;BME280;7231;59.370;18.016;2023-10-19T07:21:10;101463.22;;;2.92;94.61
14295;BME280;7231;59.370;18.016;2023-10-19T07:23:39;101463.41;;;2.96;94.09
14295;BME280;7231;59.370;18.016;2023-10-19T07:26:07;101463.94;;;3.03;94.17
14295;BME280;7231;59.370;18.016;2023-10-19T07:28:36;101446.13;;;3.08;94.80
14295;BME280;7231;59.370;18.016;2023-10-19T07:31:06;101454.03;;;3.22;94.29
14295;BME280;7231;59.370;18.016;2023-10-19T07:33:39;101360.88;;;2.86;94.34
14295;BME280;7231;59.370;18.016;2023-10-19T07:36:13;101456.84;;;3.52;94.12
14295;BME280;7231;59.370;18.016;2023-10-19T07:38:42;101446.78;;;3.56;93.41
14295;BME280;7231;59.370;18.016;2023-10-19T07:41:10;101446.09;;;3.59;93.39
14295;BME280;7231;59.370;18.016;2023-10-19T07:43:39;101451.97;;;3.70;93.83
14295;BME280;7231;59.370;18.016;2023-10-19T07:46:07;101453.56;;;3.81;93.03
14295;BME280;7231;59.370;18.016;2023-10-19T07:48:35;101457.75;;;3.79;92.22
14295;BME280;7231;59.370;18.016;2023-10-19T07:51:03;101461.66;;;3.72;91.78
14295;BME280;7231;59.370;18.016;2023-10-19T07:53:31;101451.06;;;3.69;91.37
14295;BME280;7231;59.370;18.016;2023-10-19T07:55:59;101453.47;;;3.66;90.76
14295;BME280;7231;59.370;18.016;2023-10-19T07:58:27;101447.78;;;3.58;90.69
14295;BME280;7231;59.370;18.016;2023-10-19T08:00:57;101457.75;;;3.52;90.36
14295;BME280;7231;59.370;18.016;2023-10-19T08:03:25;101458.44;;;3.50;90.08
14295;BME280;7231;59.370;18.016;2023-10-19T08:05:53;101463.91;;;3.41;90.42
14295;BME280;7231;59.370;18.016;2023-10-19T08:08:21;101455.16;;;3.39;90.09
14295;BME280;7231;59.370;18.016;2023-10-19T08:10:51;101459.13;;;3.34;90.25
14295;BME280;7231;59.370;18.016;2023-10-19T08:13:19;101460.22;;;3.38;90.47
14295;BME280;7231;59.370;18.016;2023-10-19T08:15:47;101461.84;;;3.49;91.28
14295;BME280;7231;59.370;18.016;2023-10-19T08:18:17;101436.81;;;3.49;91.16
14295;BME280;7231;59.370;18.016;2023-10-19T08:20:45;101312.78;;;2.89;90.79
14295;BME280;7231;59.370;18.016;2023-10-19T08:23:15;101447.38;;;3.79;90.67
14295;BME280;7231;59.370;18.016;2023-10-19T08:25:50;101455.16;;;3.79;90.10
14295;BME280;7231;59.370;18.016;2023-10-19T08:28:22;101437.72;;;3.63;89.63
14295;BME280;7231;59.370;18.016;2023-10-19T08:30:50;101452.97;;;3.72;89.89
14295;BME280;7231;59.370;18.016;2023-10-19T08:33:29;101439.81;;;3.69;89.55
14295;BME280;7231;59.370;18.016;2023-10-19T08:36:01;101438.59;;;3.77;90.16
14295;BME280;7231;59.370;18.016;2023-10-19T08:38:29;101448.19;;;3.91;90.40
14295;BME280;7231;59.370;18.016;2023-10-19T08:40:57;101453.75;;;3.97;90.71
14295;BME280;7231;59.370;18.016;2023-10-19T08:43:25;101406.41;;;4.14;92.91
14295;BME280;7231;59.370;18.016;2023-10-19T08:45:55;101445.84;;;4.78;92.49
14295;BME280;7231;59.370;18.016;2023-10-19T08:48:23;101442.94;;;5.16;93.07
14295;BME280;7231;59.370;18.016;2023-10-19T08:50:53;101443.78;;;5.75;92.96
14295;BME280;7231;59.370;18.016;2023-10-19T08:53:24;101453.47;;;6.24;92.96
14295;BME280;7231;59.370;18.016;2023-10-19T08:55:51;101439.00;;;6.77;93.52
14295;BME280;7231;59.370;18.016;2023-10-19T08:58:21;101440.53;;;7.40;91.89
14295;BME280;7231;59.370;18.016;2023-10-19T09:00:50;101448.16;;;7.54;87.37
14295;BME280;7231;59.370;18.016;2023-10-19T09:03:22;101443.16;;;7.40;85.07
14295;BME280;7231;59.370;18.016;2023-10-19T09:05:54;101418.47;;;7.00;82.75
14295;BME280;7231;59.370;18.016;2023-10-19T09:08:23;101439.97;;;6.96;81.74
14295;BME280;7231;59.370;18.016;2023-10-19T09:10:51;101450.75;;;6.69;81.04
14295;BME280;7231;59.370;18.016;2023-10-19T09:13:21;101440.47;;;6.40;79.96
14295;BME280;7231;59.370;18.016;2023-10-19T09:15:52;101447.09;;;6.18;79.91
14295;BME280;7231;59.370;18.016;2023-10-19T09:18:24;101439.97;;;6.00;80.48
14295;BME280;7231;59.370;18.016;2023-10-19T09:20:57;101433.38;;;5.90;79.96
14295;BME280;7231;59.370;18.016;2023-10-19T09:23:35;101441.78;;;5.86;79.99
14295;BME280;7231;59.370;18.016;2023-10-19T09:26:04;101446.28;;;5.74;79.12
14295;BME280;7231;59.370;18.016;2023-10-19T09:28:35;101445.88;;;5.51;79.28
14295;BME280;7231;59.370;18.016;2023-10-19T09:31:05;101448.38;;;5.35;79.11
14295;BME280;7231;59.370;18.016;2023-10-19T09:33:40;101451.38;;;5.12;79.22
14295;BME280;7231;59.370;18.016;2023-10-19T09:36:13;101456.34;;;4.94;79.01
14295;BME280;7231;59.370;18.016;2023-10-19T09:38:45;101462.59;;;4.83;79.14
14295;BME280;7231;59.370;18.016;2023-10-19T09:41:17;101447.78;;;4.67;78.64
14295;BME280;7231;59.370;18.016;2023-10-19T09:43:46;101453.69;;;4.65;79.41
14295;BME280;7231;59.370;18.016;2023-10-19T09:46:21;101456.91;;;4.61;78.99
14295;BME280;7231;59.370;18.016;2023-10-19T09:48:50;101454.78;;;4.68;79.64
14295;BME280;7231;59.370;18.016;2023-10-19T09:51:21;101459.63;;;4.77;80.11
14295;BME280;7231;59.370;18.016;2023-10-19T09:53:55;101450.50;;;4.83;79.71
14295;BME280;7231;59.370;18.016;2023-10-19T09:56:29;101458.56;;;4.73;78.61
14295;BME280;7231;59.370;18.016;2023-10-19T09:59:05;101461.94;;;4.72;79.92
14295;BME280;7231;59.370;18.016;2023-10-19T10:02:06;101464.50;;;4.85;80.13
14295;BME280;7231;59.370;18.016;2023-10-19T10:04:35;101469.06;;;4.89;80.59
14295;BME280;7231;59.370;18.016;2023-10-19T10:07:06;101453.13;;;4.98;80.88
14295;BME280;7231;59.370;18.016;2023-10-19T10:09:35;101456.91;;;5.47;83.26
14295;BME280;7231;59.370;18.016;2023-10-19T10:12:17;101462.44;;;6.29;83.29
14295;BME280;7231;59.370;18.016;2023-10-19T10:14:55;101460.84;;;6.79;81.45
14295;BME280;7231;59.370;18.016;2023-10-19T10:17:24;101450.59;;;7.33;82.27
14295;BME280;7231;59.370;18.016;2023-10-19T10:19:54;101445.38;;;7.86;79.64
14295;BME280;7231;59.370;18.016;2023-10-19T10:22:25;101446.47;;;8.09;77.28
14295;BME280;7231;59.370;18.016;2023-10-19T10:24:55;101452.56;;;8.45;75.43
14295;BME280;7231;59.370;18.016;2023-10-19T10:27:23;101456.31;;;8.69;72.93
14295;BME280;7231;59.370;18.016;2023-10-19T10:29:56;101447.91;;;8.96;71.45
14295;BME280;7231;59.370;18.016;2023-10-19T10:32:45;101450.97;;;9.47;68.77
14295;BME280;7231;59.370;18.016;2023-10-19T10:38:21;101437.28;;;9.95;66.20
14295;BME280;7231;59.370;18.016;2023-10-19T10:40:50;101452.78;;;9.68;64.40
14295;BME280;7231;59.370;18.016;2023-10-19T10:43:19;101440.31;;;9.21;63.36
14295;BME280;7231;59.370;18.016;2023-10-19T10:45:48;101464.34;;;8.74;62.94
14295;BME280;7231;59.370;18.016;2023-10-19T10:48:17;101443.78;;;8.25;62.11
14295;BME280;7231;59.370;18.016;2023-10-19T10:50:46;101445.34;;;7.67;61.71
14295;BME280;7231;59.370;18.016;2023-10-19T10:53:14;101455.25;;;7.22;62.23
14295;BME280;7231;59.370;18.016;2023-10-19T10:55:44;101454.72;;;6.79;62.19
14295;BME280;7231;59.370;18.016;2023-10-19T10:58:15;101455.94;;;6.53;62.57
14295;BME280;7231;59.370;18.016;2023-10-19T11:00:43;101445.97;;;6.13;62.49
14295;BME280;7231;59.370;18.016;2023-10-19T11:03:11;101450.94;;;5.94;62.66
14295;BME280;7231;59.370;18.016;2023-10-19T11:05:40;101461.19;;;5.76;62.71
14295;BME280;7231;59.370;18.016;2023-10-19T11:08:13;101444.59;;;5.60;62.85
14295;BME280;7231;59.370;18.016;2023-10-19T11:10:45;101460.84;;;5.55;63.08
14295;BME280;7231;59.370;18.016;2023-10-19T11:13:14;101452.78;;;5.51;63.12
14295;BME280;7231;59.370;18.016;2023-10-19T11:15:48;101456.19;;;5.50;63.15
14295;BME280;7231;59.370;18.016;2023-10-19T11:18:29;101443.72;;;5.44;63.51
14295;BME280;7231;59.370;18.016;2023-10-19T11:20:59;101417.28;;;5.22;62.90
14295;BME280;7231;59.370;18.016;2023-10-19T11:23:37;101450.00;;;5.33;63.20
14295;BME280;7231;59.370;18.016;2023-10-19T11:26:07;101451.78;;;5.34;63.47
14295;BME280;7231;59.370;18.016;2023-10-19T11:28:36;101450.88;;;5.48;63.47
14295;BME280;7231;59.370;18.016;2023-10-19T11:31:13;101449.00;;;5.61;63.44
14295;BME280;7231;59.370;18.016;2023-10-19T11:33:43;101458.75;;;5.79;63.95
14295;BME280;7231;59.370;18.016;2023-10-19T11:36:12;101450.69;;;6.21;64.81
14295;BME280;7231;59.370;18.016;2023-10-19T11:38:40;101450.25;;;6.60;64.14
14295;BME280;7231;59.370;18.016;2023-10-19T11:41:10;101439.66;;;6.90;63.40
14295;BME280;7231;59.370;18.016;2023-10-19T11:43:39;101389.63;;;6.97;62.30
14295;BME280;7231;59.370;18.016;2023-10-19T11:46:07;101445.78;;;7.58;61.61
14295;BME280;7231;59.370;18.016;2023-10-19T11:48:36;101433.22;;;7.87;61.41
14295;BME280;7231;59.370;18.016;2023-10-19T11:51:04;101443.22;;;7.95;60.03
14295;BME280;7231;59.370;18.016;2023-10-19T11:53:33;101447.09;;;7.86;59.24
14295;BME280;7231;59.370;18.016;2023-10-19T11:56:04;101439.59;;;7.56;59.20
14295;BME280;7231;59.370;18.016;2023-10-19T11:58:34;101444.44;;;7.14;58.22
14295;BME280;7231;59.370;18.016;2023-10-19T12:01:04;101450.41;;;6.96;58.88
14295;BME280;7231;59.370;18.016;2023-10-19T12:03:35;101421.09;;;6.67;58.71
14295;BME280;7231;59.370;18.016;2023-10-19T12:06:04;101442.69;;;6.81;60.05
14295;BME280;7231;59.370;18.016;2023-10-19T12:08:33;101439.16;;;6.97;59.53
14295;BME280;7231;59.370;18.016;2023-10-19T12:11:02;101445.09;;;7.10;58.66
14295;BME280;7231;59.370;18.016;2023-10-19T12:13:31;101317.22;;;6.41;58.10
14295;BME280;7231;59.370;18.016;2023-10-19T12:16:00;101434.66;;;7.10;57.64
14295;BME280;7231;59.370;18.016;2023-10-19T12:18:31;101432.91;;;7.27;57.27
14295;BME280;7231;59.370;18.016;2023-10-19T12:20:59;101426.53;;;7.38;56.21
14295;BME280;7231;59.370;18.016;2023-10-19T12:23:27;101424.88;;;7.40;56.20
14295;BME280;7231;59.370;18.016;2023-10-19T12:25:57;101416.50;;;7.30;55.22
14295;BME280;7231;59.370;18.016;2023-10-19T12:28:29;101422.47;;;7.27;55.87
14295;BME280;7231;59.370;18.016;2023-10-19T12:30:57;101423.69;;;7.34;55.86
14295;BME280;7231;59.370;18.016;2023-10-19T12:33:26;101420.78;;;7.45;54.67
14295;BME280;7231;59.370;18.016;2023-10-19T12:35:55;101405.66;;;7.38;54.83
14295;BME280;7231;59.370;18.016;2023-10-19T12:38:24;101399.81;;;7.26;54.44
14295;BME280;7231;59.370;18.016;2023-10-19T12:40:52;101413.41;;;7.37;54.41
14295;BME280;7231;59.370;18.016;2023-10-19T12:43:21;101398.75;;;7.23;53.87
14295;BME280;7231;59.370;18.016;2023-10-19T12:45:49;101413.25;;;7.00;54.05
14295;BME280;7231;59.370;18.016;2023-10-19T12:48:21;101406.09;;;6.96;54.25
14295;BME280;7231;59.370;18.016;2023-10-19T12:50:53;101385.75;;;7.40;53.56
14295;BME280;7231;59.370;18.016;2023-10-19T12:53:22;101402.94;;;7.90;53.04
14295;BME280;7231;59.370;18.016;2023-10-19T12:55:51;101361.00;;;7.87;52.69
14295;BME280;7231;59.370;18.016;2023-10-19T12:58:20;101397.91;;;8.12;52.41
14295;BME280;7231;59.370;18.016;2023-10-19T13:00:48;101394.97;;;8.24;52.21
14295;BME280;7231;59.370;18.016;2023-10-19T13:03:16;101391.25;;;8.19;51.82
14295;BME280;7231;59.370;18.016;2023-10-19T13:05:45;101360.03;;;8.22;52.19
14295;BME280;7231;59.370;18.016;2023-10-19T13:08:15;101373.97;;;8.60;51.25
14295;BME280;7231;59.370;18.016;2023-10-19T13:10:44;101392.41;;;9.03;50.74
14295;BME280;7231;59.370;18.016;2023-10-19T13:13:13;101396.13;;;9.50;50.48
14295;BME280;7231;59.370;18.016;2023-10-19T13:15:44;101390.22;;;9.76;49.82
14295;BME280;7231;59.370;18.016;2023-10-19T13:18:13;101366.13;;;9.62;49.36
14295;BME280;7231;59.370;18.016;2023-10-19T13:20:47;101373.78;;;9.58;49.24